createdAt,value
2023-03-08T00:01:53.677Z,16.70
2023-03-08T00:04:42.669Z,15.10
2023-03-08T00:07:11.589Z,14.73
2023-03-08T00:09:40.561Z,16.57
2023-03-08T00:12:10.850Z,15.47
2023-03-08T00:14:39.830Z,14.67
2023-03-08T00:17:08.793Z,50.43
2023-03-08T00:19:37.824Z,56.97
2023-03-08T00:22:08.156Z,65.60
2023-03-08T00:24:37.203Z,73.50
2023-03-08T00:27:06.212Z,73.20
2023-03-08T00:29:35.118Z,38.83
2023-03-08T00:32:04.131Z,34.17
2023-03-08T00:34:32.939Z,52.77
2023-03-08T00:37:07.677Z,27.57
2023-03-08T00:39:55.991Z,20.97
2023-03-08T00:42:25.383Z,19.73
2023-03-08T00:44:54.515Z,19.17
2023-03-08T00:47:23.370Z,19.27
2023-03-08T00:49:52.255Z,20.27
2023-03-08T00:52:24.451Z,21.67
2023-03-08T00:54:53.544Z,23.00
2023-03-08T00:57:22.391Z,30.27
2023-03-08T00:59:51.290Z,21.80
2023-03-08T01:02:21.517Z,20.70
2023-03-08T01:04:50.478Z,40.73
2023-03-08T01:07:19.961Z,39.37
2023-03-08T01:09:50.462Z,61.43
2023-03-08T01:12:22.806Z,25.83
2023-03-08T01:14:51.937Z,14.50
2023-03-08T01:17:20.860Z,14.97
2023-03-08T01:19:49.692Z,13.67
2023-03-08T01:22:20.189Z,16.57
2023-03-08T01:24:51.622Z,15.40
2023-03-08T01:27:21.705Z,13.57
2023-03-08T01:29:50.720Z,13.23
2023-03-08T01:32:19.549Z,13.67
2023-03-08T01:34:48.489Z,12.53
2023-03-08T01:37:17.348Z,15.33
2023-03-08T01:39:47.555Z,15.60
2023-03-08T01:42:17.987Z,17.50
2023-03-08T01:44:55.581Z,20.27
2023-03-08T01:47:26.283Z,18.47
2023-03-08T01:50:15.102Z,13.67
2023-03-08T01:52:48.035Z,16.37
2023-03-08T01:55:18.389Z,15.70
2023-03-08T01:57:53.614Z,14.47
2023-03-08T02:00:24.553Z,15.80
2023-03-08T02:02:58.168Z,14.70
2023-03-08T02:05:28.656Z,12.73
2023-03-08T02:08:03.327Z,12.20
2023-03-08T02:10:38.155Z,14.60
2023-03-08T02:13:11.506Z,13.43
2023-03-08T02:15:44.468Z,12.07
2023-03-08T02:18:13.876Z,14.97
2023-03-08T02:20:46.543Z,86.47
2023-03-08T02:23:18.530Z,28.27
2023-03-08T02:25:53.365Z,16.03
2023-03-08T02:28:24.558Z,24.13
2023-03-08T02:30:55.452Z,138.07
2023-03-08T02:33:24.951Z,80.67
2023-03-08T02:35:54.291Z,65.60
2023-03-08T02:38:24.716Z,56.00
2023-03-08T02:40:53.781Z,52.53
2023-03-08T02:43:22.704Z,47.43
2023-03-08T02:45:51.948Z,46.47
2023-03-08T02:48:21.052Z,32.87
2023-03-08T02:50:49.928Z,34.93
2023-03-08T02:53:18.867Z,33.17
2023-03-08T02:55:49.164Z,33.00
2023-03-08T02:58:18.110Z,40.10
2023-03-08T03:00:52.091Z,20.43
2023-03-08T03:03:20.997Z,17.97
2023-03-08T03:05:52.911Z,17.13
2023-03-08T03:08:33.538Z,13.33
2023-03-08T03:11:11.665Z,13.13
2023-03-08T03:13:40.727Z,11.43
2023-03-08T03:16:11.914Z,9.97
2023-03-08T03:18:41.193Z,12.23
2023-03-08T03:21:11.676Z,26.80
2023-03-08T03:23:41.272Z,57.13
2023-03-08T03:26:16.919Z,60.67
2023-03-08T03:28:47.490Z,38.80
2023-03-08T03:31:20.942Z,15.97
2023-03-08T03:33:52.336Z,12.67
2023-03-08T03:36:23.789Z,10.97
2023-03-08T03:38:53.563Z,11.37
2023-03-08T03:41:25.340Z,12.30
2023-03-08T03:44:03.393Z,11.93
2023-03-08T03:46:32.807Z,12.80
2023-03-08T03:49:01.859Z,12.63
2023-03-08T03:51:36.451Z,11.80
2023-03-08T03:54:22.230Z,10.97
2023-03-08T03:56:52.991Z,10.07
2023-03-08T03:59:26.650Z,9.60
2023-03-08T04:02:14.907Z,10.00
2023-03-08T04:04:51.807Z,10.83
2023-03-08T04:07:25.244Z,9.90
2023-03-08T04:09:59.901Z,9.73
2023-03-08T04:12:30.604Z,9.40
2023-03-08T04:15:01.679Z,9.33
2023-03-08T04:17:33.107Z,9.00
2023-03-08T04:20:01.959Z,8.67
2023-03-08T04:22:35.209Z,9.07
2023-03-08T04:25:12.662Z,9.23
2023-03-08T04:27:51.355Z,8.83
2023-03-08T04:30:22.946Z,10.60
2023-03-08T04:32:54.292Z,11.40
2023-03-08T04:35:27.093Z,10.30
2023-03-08T04:37:56.716Z,9.10
2023-03-08T04:40:28.270Z,9.33
2023-03-08T04:43:01.774Z,9.13
2023-03-08T04:45:38.995Z,8.17
2023-03-08T04:48:15.990Z,7.23
2023-03-08T04:50:46.827Z,7.40
2023-03-08T04:53:16.363Z,7.00
2023-03-08T04:55:45.374Z,13.70
2023-03-08T04:58:16.100Z,9.50
2023-03-08T05:00:45.379Z,9.50
2023-03-08T05:03:15.024Z,8.07
2023-03-08T05:05:48.032Z,6.63
2023-03-08T05:08:17.673Z,7.00
2023-03-08T05:10:50.849Z,9.37
2023-03-08T05:13:21.352Z,10.70
2023-03-08T05:15:50.553Z,10.83
2023-03-08T05:18:20.874Z,9.23
2023-03-08T05:20:56.301Z,8.63
2023-03-08T05:23:28.484Z,27.10
2023-03-08T05:26:00.542Z,21.57
2023-03-08T05:28:33.548Z,10.80
2023-03-08T05:31:03.725Z,7.97
2023-03-08T05:33:52.353Z,7.40
2023-03-08T05:36:27.977Z,7.97
2023-03-08T05:38:59.295Z,7.77
2023-03-08T05:41:36.266Z,10.80
2023-03-08T05:44:08.950Z,18.77
2023-03-08T05:46:40.750Z,27.23
2023-03-08T05:49:11.473Z,26.83
2023-03-08T05:51:40.587Z,32.47
2023-03-08T05:54:09.594Z,27.70
2023-03-08T05:56:38.585Z,12.30
2023-03-08T05:59:19.664Z,8.80
2023-03-08T06:01:49.137Z,8.07
2023-03-08T06:04:25.506Z,8.40
2023-03-08T06:06:54.552Z,9.90
2023-03-08T06:09:27.553Z,13.13
2023-03-08T06:11:57.071Z,12.03
2023-03-08T06:14:27.923Z,9.90
2023-03-08T06:17:10.689Z,11.30
2023-03-08T06:19:59.042Z,11.03
2023-03-08T06:22:28.093Z,10.97
2023-03-08T06:24:57.840Z,12.77
2023-03-08T06:27:35.444Z,23.03
2023-03-08T06:30:12.449Z,24.10
2023-03-08T06:32:43.005Z,25.37
2023-03-08T06:35:12.849Z,26.03
2023-03-08T06:37:48.595Z,24.80
2023-03-08T06:40:19.043Z,28.67
2023-03-08T06:42:47.860Z,25.30
2023-03-08T06:45:19.478Z,19.93
2023-03-08T06:47:48.437Z,32.87
2023-03-08T06:50:18.012Z,32.00
2023-03-08T06:52:49.575Z,24.67
2023-03-08T06:55:23.656Z,30.50
2023-03-08T06:57:52.653Z,23.77
2023-03-08T07:00:24.164Z,21.97
2023-03-08T07:02:53.894Z,27.43
2023-03-08T07:05:22.873Z,37.67
2023-03-08T07:07:51.700Z,26.23
2023-03-08T07:10:22.200Z,22.00
2023-03-08T07:12:52.381Z,13.00
2023-03-08T07:15:24.455Z,12.30
2023-03-08T07:17:55.920Z,13.87
2023-03-08T07:20:26.929Z,14.43
2023-03-08T07:22:56.079Z,14.17
2023-03-08T07:25:24.955Z,11.67
2023-03-08T07:28:03.866Z,11.03
2023-03-08T07:30:34.828Z,9.50
2023-03-08T07:33:04.011Z,10.73
2023-03-08T07:35:34.961Z,9.53
2023-03-08T07:38:04.049Z,22.87
2023-03-08T07:40:32.987Z,9.60
2023-03-08T07:43:01.994Z,14.10
2023-03-08T07:45:50.942Z,16.13
2023-03-08T07:48:19.870Z,10.70
2023-03-08T07:50:49.146Z,13.30
2023-03-08T07:53:18.122Z,43.90
2023-03-08T07:55:48.092Z,50.57
2023-03-08T07:58:24.165Z,34.33
2023-03-08T08:00:55.540Z,16.83
2023-03-08T08:03:25.338Z,25.30
2023-03-08T08:05:54.328Z,22.20
2023-03-08T08:08:25.551Z,12.40
2023-03-08T08:10:54.396Z,13.93
2023-03-08T08:13:29.976Z,15.63
2023-03-08T08:16:05.657Z,12.03
2023-03-08T08:18:35.152Z,10.50
2023-03-08T08:21:05.829Z,9.43
2023-03-08T08:23:35.126Z,12.83
2023-03-08T08:26:08.501Z,11.87
2023-03-08T08:28:39.081Z,10.00
2023-03-08T08:31:12.290Z,15.47
2023-03-08T08:33:41.480Z,11.13
2023-03-08T08:36:17.608Z,11.07
2023-03-08T08:38:47.233Z,4.53
2023-03-08T08:41:34.679Z,7.50
2023-03-08T08:44:03.679Z,19.63
2023-03-08T08:46:35.264Z,11.27
2023-03-08T08:49:05.622Z,12.10
2023-03-08T08:51:34.596Z,11.03
2023-03-08T08:54:03.926Z,15.70
2023-03-08T08:56:32.945Z,7.47
2023-03-08T08:59:03.728Z,29.70
2023-03-08T09:01:35.982Z,12.53
2023-03-08T09:04:05.094Z,13.67
2023-03-08T09:06:34.079Z,10.00
2023-03-08T09:09:03.195Z,9.73
2023-03-08T09:11:32.763Z,7.80
2023-03-08T09:14:04.053Z,4.83
2023-03-08T09:16:35.795Z,5.07
2023-03-08T09:19:06.288Z,3.90
2023-03-08T09:21:35.879Z,4.93
2023-03-08T09:24:09.700Z,4.40
2023-03-08T09:26:38.973Z,4.30
2023-03-08T09:29:08.219Z,3.67
2023-03-08T09:31:40.435Z,5.93
2023-03-08T09:34:10.001Z,10.10
2023-03-08T09:36:40.444Z,9.90
2023-03-08T09:39:10.081Z,9.63
2023-03-08T09:41:57.623Z,6.37
2023-03-08T09:44:49.870Z,5.20
2023-03-08T09:47:30.004Z,3.53
2023-03-08T09:50:09.067Z,4.70
2023-03-08T09:52:41.906Z,2.63
2023-03-08T09:55:19.211Z,2.93
2023-03-08T09:57:53.845Z,3.83
2023-03-08T10:00:25.031Z,3.43
2023-03-08T10:03:41.756Z,3.83
2023-03-08T10:06:19.630Z,3.20
2023-03-08T10:09:03.970Z,3.70
2023-03-08T10:11:37.573Z,3.80
2023-03-08T10:14:17.466Z,5.07
2023-03-08T10:16:49.843Z,6.50
2023-03-08T10:19:29.068Z,4.93
2023-03-08T10:21:59.525Z,5.60
2023-03-08T10:24:33.799Z,4.00
2023-03-08T10:27:14.972Z,5.37
2023-03-08T10:29:53.475Z,4.70
2023-03-08T10:32:24.463Z,5.53
2023-03-08T10:35:13.422Z,3.20
2023-03-08T10:37:43.519Z,4.43
2023-03-08T10:40:22.244Z,6.70
2023-03-08T10:42:54.835Z,7.30
2023-03-08T10:45:25.817Z,8.90
2023-03-08T10:48:00.341Z,11.00
2023-03-08T10:51:02.028Z,9.27
2023-03-08T10:53:31.163Z,7.20
2023-03-08T10:56:02.985Z,10.50
2023-03-08T10:58:36.245Z,7.77
2023-03-08T11:01:30.876Z,17.07
2023-03-08T11:04:05.201Z,7.87
2023-03-08T11:06:37.185Z,6.07
2023-03-08T11:09:22.699Z,8.27
2023-03-08T11:11:51.834Z,10.77
2023-03-08T11:14:20.904Z,4.93
2023-03-08T11:17:03.919Z,5.13
2023-03-08T11:19:41.740Z,4.67
2023-03-08T11:22:23.460Z,5.30
2023-03-08T11:25:19.672Z,8.90
2023-03-08T11:28:07.043Z,12.97
2023-03-08T11:31:13.333Z,12.70
2023-03-08T11:33:56.172Z,12.37
2023-03-08T11:36:30.974Z,12.90
2023-03-08T11:39:07.606Z,10.77
2023-03-08T11:41:44.157Z,13.07
2023-03-08T11:44:28.031Z,12.40
2023-03-08T11:47:17.947Z,11.60
2023-03-08T11:50:06.235Z,16.97
2023-03-08T11:52:44.741Z,13.00
2023-03-08T11:55:41.058Z,15.23
2023-03-08T11:58:16.699Z,15.97
2023-03-08T12:00:47.992Z,14.43
2023-03-08T12:03:19.861Z,14.10
2023-03-08T12:06:02.913Z,16.53
2023-03-08T12:08:36.734Z,14.93
2023-03-08T12:11:11.837Z,18.83
2023-03-08T12:13:46.280Z,15.20
2023-03-08T12:16:20.136Z,19.57
2023-03-08T12:18:56.113Z,26.03
2023-03-08T12:21:46.950Z,15.20
2023-03-08T12:24:28.195Z,15.47
2023-03-08T12:27:05.577Z,15.83
2023-03-08T12:29:40.891Z,16.57
2023-03-08T12:32:12.729Z,17.37
2023-03-08T12:34:44.280Z,18.30
2023-03-08T12:37:25.286Z,19.13
2023-03-08T12:40:00.845Z,20.50
2023-03-08T12:42:38.681Z,20.07
2023-03-08T12:45:35.701Z,18.57
2023-03-08T12:48:18.692Z,21.10
2023-03-08T12:51:00.462Z,19.47
2023-03-08T12:53:36.711Z,15.60
2023-03-08T12:56:16.612Z,14.37
2023-03-08T12:58:53.826Z,13.33
2023-03-08T13:01:38.715Z,11.43
2023-03-08T13:04:39.000Z,11.33
2023-03-08T13:07:29.806Z,12.00
2023-03-08T13:10:04.751Z,13.00
2023-03-08T13:12:51.442Z,14.43
2023-03-08T13:15:25.691Z,13.60
2023-03-08T13:18:04.115Z,14.33
2023-03-08T13:20:52.669Z,15.93
2023-03-08T13:23:29.681Z,15.27
2023-03-08T13:26:35.184Z,16.13
2023-03-08T13:29:16.179Z,18.67
2023-03-08T13:31:48.167Z,19.27
2023-03-08T13:34:36.595Z,16.57
2023-03-08T13:37:05.887Z,14.70
2023-03-08T13:39:34.756Z,16.70
2023-03-08T13:42:11.954Z,16.07
2023-03-08T13:44:40.987Z,13.43
2023-03-08T13:47:24.146Z,12.23
2023-03-08T13:49:55.075Z,11.87
2023-03-08T13:52:27.029Z,13.30
2023-03-08T13:54:57.981Z,14.07
2023-03-08T13:57:29.263Z,13.27
2023-03-08T14:00:01.324Z,12.70
2023-03-08T14:02:34.934Z,11.77
2023-03-08T14:05:04.681Z,10.90
2023-03-08T14:07:34.841Z,11.20
2023-03-08T14:10:05.046Z,15.43
2023-03-08T14:12:35.806Z,14.43
2023-03-08T14:15:07.137Z,12.77
2023-03-08T14:17:38.094Z,11.57
2023-03-08T14:20:20.708Z,12.77
2023-03-08T14:22:52.043Z,10.50
2023-03-08T14:25:29.327Z,10.47
2023-03-08T14:27:59.402Z,8.70
2023-03-08T14:30:38.788Z,7.97
2023-03-08T14:33:30.656Z,7.73
2023-03-08T14:36:06.508Z,8.30
2023-03-08T14:38:37.980Z,6.93
2023-03-08T14:41:07.494Z,8.50
2023-03-08T14:43:36.578Z,7.27
2023-03-08T14:46:09.629Z,6.97
2023-03-08T14:48:50.403Z,6.60
2023-03-08T14:51:41.440Z,8.67
2023-03-08T14:54:30.614Z,9.60
2023-03-08T14:57:00.297Z,9.53
2023-03-08T14:59:48.736Z,10.60
2023-03-08T15:02:19.092Z,11.53
2023-03-08T15:04:49.610Z,12.57
2023-03-08T15:07:20.929Z,11.40
2023-03-08T15:09:53.133Z,10.20
2023-03-08T15:12:22.362Z,9.07
2023-03-08T15:14:51.284Z,8.33
2023-03-08T15:17:20.184Z,7.30
2023-03-08T15:19:51.194Z,8.30
2023-03-08T15:22:21.069Z,7.90
2023-03-08T15:24:50.056Z,7.80
2023-03-08T15:27:21.426Z,8.13
2023-03-08T15:29:50.452Z,9.83
2023-03-08T15:32:19.750Z,9.93
2023-03-08T15:34:50.913Z,11.40
2023-03-08T15:37:19.925Z,15.13
2023-03-08T15:39:49.150Z,17.93
2023-03-08T15:42:18.206Z,19.30
2023-03-08T15:44:47.043Z,16.33
2023-03-08T15:47:16.897Z,16.37
2023-03-08T15:50:00.420Z,15.13
2023-03-08T15:53:06.795Z,14.00
2023-03-08T15:55:54.392Z,8.80
2023-03-08T15:58:34.121Z,9.37
2023-03-08T16:01:17.043Z,9.63
2023-03-08T16:04:10.435Z,12.43
2023-03-08T16:06:48.875Z,11.20
2023-03-08T16:09:24.619Z,14.73
2023-03-08T16:11:54.982Z,16.13
2023-03-08T16:14:50.101Z,16.97
2023-03-08T16:17:27.804Z,18.00
2023-03-08T16:20:06.780Z,18.50
2023-03-08T16:22:37.393Z,17.20
2023-03-08T16:25:07.403Z,19.17
2023-03-08T16:27:38.208Z,19.10
2023-03-08T16:30:09.033Z,19.40
2023-03-08T16:32:38.007Z,23.07
2023-03-08T16:35:07.849Z,23.57
2023-03-08T16:37:38.867Z,23.63
2023-03-08T16:40:09.313Z,31.67
2023-03-08T16:42:56.973Z,37.10
2023-03-08T16:45:25.953Z,34.57
2023-03-08T16:47:55.183Z,37.97
2023-03-08T16:50:27.642Z,41.87
2023-03-08T16:52:59.382Z,33.63
2023-03-08T16:55:28.209Z,37.07
2023-03-08T16:57:57.157Z,36.60
2023-03-08T17:00:27.385Z,35.97
2023-03-08T17:02:56.212Z,36.93
2023-03-08T17:05:25.734Z,38.07
2023-03-08T17:07:54.573Z,37.43
2023-03-08T17:10:24.930Z,34.47
2023-03-08T17:12:53.963Z,33.07
2023-03-08T17:15:23.038Z,30.47
2023-03-08T17:17:51.924Z,30.23
2023-03-08T17:20:21.169Z,29.07
2023-03-08T17:22:50.151Z,25.40
2023-03-08T17:25:19.209Z,22.40
2023-03-08T17:27:50.408Z,26.20
2023-03-08T17:30:28.878Z,22.97
2023-03-08T17:32:59.784Z,19.30
2023-03-08T17:35:29.461Z,20.87
2023-03-08T17:37:58.358Z,19.20
2023-03-08T17:40:29.977Z,19.77
2023-03-08T17:43:02.701Z,25.23
2023-03-08T17:45:31.843Z,37.07
2023-03-08T17:48:02.884Z,37.00
2023-03-08T17:50:32.318Z,40.00
2023-03-08T17:53:01.585Z,36.77
2023-03-08T17:55:30.874Z,37.97
2023-03-08T17:58:01.265Z,43.97
2023-03-08T18:00:30.407Z,54.50
2023-03-08T18:03:00.220Z,63.50
2023-03-08T18:08:11.329Z,62.53
2023-03-08T18:10:40.938Z,55.20
2023-03-08T18:13:11.721Z,54.37
2023-03-08T18:15:40.880Z,60.70
2023-03-08T18:18:10.904Z,68.23
2023-03-08T18:20:40.410Z,68.47
2023-03-08T18:23:09.385Z,69.63
2023-03-08T18:25:40.503Z,83.60
2023-03-08T18:28:11.361Z,70.17
2023-03-08T18:30:40.860Z,73.67
2023-03-08T18:33:17.114Z,70.93
2023-03-08T18:35:49.942Z,71.43
2023-03-08T18:38:19.419Z,89.83
2023-03-08T18:40:51.408Z,101.40
2023-03-08T18:43:22.364Z,99.67
2023-03-08T18:45:52.672Z,95.03
2023-03-08T18:48:22.770Z,92.63
2023-03-08T18:50:52.110Z,86.40
2023-03-08T18:53:20.954Z,81.90
2023-03-08T18:55:57.037Z,78.57
2023-03-08T18:58:28.341Z,77.00
2023-03-08T19:01:00.554Z,96.50
2023-03-08T19:03:29.908Z,86.30
2023-03-08T19:06:05.038Z,82.73
2023-03-08T19:08:34.492Z,83.00
2023-03-08T19:11:12.598Z,78.30
2023-03-08T19:13:44.199Z,76.57
2023-03-08T19:16:20.665Z,70.97
2023-03-08T19:18:50.820Z,60.37
2023-03-08T19:21:22.110Z,60.53
2023-03-08T19:23:52.467Z,54.10
2023-03-08T19:26:41.318Z,46.73
2023-03-08T19:29:15.154Z,46.53
2023-03-08T19:31:46.616Z,42.40
2023-03-08T19:34:16.346Z,36.77
2023-03-08T19:36:46.817Z,35.33
2023-03-08T19:39:18.872Z,36.20
2023-03-08T19:41:49.484Z,36.83
2023-03-08T19:44:23.353Z,38.17
2023-03-08T19:46:53.074Z,39.40
2023-03-08T19:49:24.959Z,38.10
2023-03-08T19:51:56.082Z,37.97
2023-03-08T19:54:26.463Z,35.07
2023-03-08T19:56:56.199Z,33.53
2023-03-08T19:59:27.502Z,33.97
2023-03-08T20:01:57.573Z,42.63
2023-03-08T20:04:26.672Z,55.57
2023-03-08T20:06:55.695Z,41.07
2023-03-08T20:09:24.514Z,86.93
2023-03-08T20:11:58.880Z,78.90
2023-03-08T20:14:29.833Z,57.93
2023-03-08T20:17:00.105Z,37.90
2023-03-08T20:19:31.950Z,27.67
2023-03-08T20:22:01.434Z,24.77
2023-03-08T20:24:31.090Z,25.10
2023-03-08T20:27:00.953Z,22.93
2023-03-08T20:29:32.545Z,22.60
2023-03-08T20:32:01.660Z,21.60
2023-03-08T20:34:34.406Z,21.57
2023-03-08T20:37:03.759Z,27.23
2023-03-08T20:39:32.666Z,44.93
2023-03-08T20:42:01.582Z,47.20
2023-03-08T20:44:32.140Z,39.57
2023-03-08T20:47:01.651Z,48.87
2023-03-08T20:49:30.748Z,43.57
2023-03-08T20:52:00.868Z,36.60
2023-03-08T20:54:30.071Z,27.63
2023-03-08T20:56:59.915Z,23.63
2023-03-08T20:59:30.138Z,22.83
2023-03-08T21:02:04.658Z,21.10
2023-03-08T21:04:34.269Z,20.67
2023-03-08T21:07:03.291Z,20.20
2023-03-08T21:09:32.116Z,37.87
2023-03-08T21:12:06.667Z,30.53
2023-03-08T21:14:39.048Z,38.03
2023-03-08T21:17:09.825Z,39.13
2023-03-08T21:19:39.107Z,41.70
2023-03-08T21:22:07.959Z,53.57
2023-03-08T21:24:36.922Z,57.13
2023-03-08T21:27:05.966Z,59.80
2023-03-08T21:29:34.853Z,60.00
2023-03-08T21:32:04.451Z,69.03
2023-03-08T21:34:34.909Z,75.53
2023-03-08T21:37:03.974Z,80.23
2023-03-08T21:39:32.887Z,74.90
2023-03-08T21:42:01.972Z,99.53
2023-03-08T21:44:32.119Z,245.50
2023-03-08T21:47:01.239Z,266.27
2023-03-08T21:49:35.257Z,286.43
2023-03-08T21:52:16.491Z,316.83
2023-03-08T21:54:45.448Z,184.50
2023-03-08T21:57:14.382Z,111.87
2023-03-08T21:59:43.279Z,92.07
2023-03-08T22:02:12.723Z,60.30
2023-03-08T22:04:41.646Z,48.73
2023-03-08T22:07:16.890Z,77.67
2023-03-08T22:09:47.005Z,153.73
2023-03-08T22:12:16.309Z,67.00
2023-03-08T22:14:45.208Z,66.43
2023-03-08T22:17:14.055Z,58.83
2023-03-08T22:19:42.892Z,42.47
2023-03-08T22:22:13.234Z,20.67
2023-03-08T22:24:42.075Z,24.13
2023-03-08T22:27:13.313Z,22.83
2023-03-08T22:29:42.551Z,19.40
2023-03-08T22:32:14.724Z,15.83
2023-03-08T22:34:43.681Z,16.00
2023-03-08T22:37:14.197Z,15.73
2023-03-08T22:39:43.550Z,13.67
2023-03-08T22:42:12.574Z,12.57
2023-03-08T22:44:41.465Z,12.07
2023-03-08T22:47:10.302Z,12.63
2023-03-08T22:49:39.314Z,11.07
2023-03-08T22:52:09.742Z,11.00
2023-03-08T22:54:40.171Z,12.83
2023-03-08T22:57:09.079Z,13.13
2023-03-08T22:59:37.998Z,12.50
2023-03-08T23:02:07.107Z,12.53
2023-03-08T23:04:36.096Z,14.40
2023-03-08T23:07:05.019Z,18.50
2023-03-08T23:09:34.036Z,21.43
2023-03-08T23:12:06.327Z,15.80
2023-03-08T23:14:36.009Z,13.60
2023-03-08T23:17:05.473Z,13.60
2023-03-08T23:19:34.452Z,14.37
2023-03-08T23:22:03.912Z,14.03
2023-03-08T23:24:32.931Z,14.30
2023-03-08T23:27:03.536Z,17.73
2023-03-08T23:29:34.131Z,34.30
2023-03-08T23:32:03.393Z,39.30
2023-03-08T23:34:32.379Z,39.40
2023-03-08T23:37:03.948Z,36.50
2023-03-08T23:39:35.579Z,39.40
2023-03-08T23:42:04.868Z,38.47
2023-03-08T23:44:35.144Z,38.70
2023-03-08T23:47:03.941Z,38.37
2023-03-08T23:49:33.033Z,41.20
2023-03-08T23:52:01.895Z,37.60
2023-03-08T23:54:30.835Z,40.10
2023-03-08T23:56:59.776Z,36.70
2023-03-08T23:59:28.641Z,33.27
